sensor_id;sensor_type;location;lat;lon;timestamp;P1;durP1;ratioP1;P2;durP2;ratioP2
44722;SDS011;30451;48.638;10.624;2022-08-19T00:01:54;2.67;;;2.30;;
44722;SDS011;30451;48.638;10.624;2022-08-19T00:04:22;3.28;;;2.45;;
44722;SDS011;30451;48.638;10.624;2022-08-19T00:06:50;2.75;;;2.30;;
44722;SDS011;30451;48.638;10.624;2022-08-19T00:09:17;2.78;;;2.40;;
44722;SDS011;30451;48.638;10.624;2022-08-19T00:11:44;3.38;;;2.40;;
44722;SDS011;30451;48.638;10.624;2022-08-19T00:14:11;3.83;;;2.45;;
44722;SDS011;30451;48.638;10.624;2022-08-19T00:16:38;3.63;;;2.47;;
44722;SDS011;30451;48.638;10.624;2022-08-19T00:19:06;3.00;;;2.30;;
44722;SDS011;30451;48.638;10.624;2022-08-19T00:21:32;2.55;;;2.15;;
44722;SDS011;30451;48.638;10.624;2022-08-19T00:24:04;2.60;;;2.17;;
44722;SDS011;30451;48.638;10.624;2022-08-19T00:26:34;2.50;;;2.20;;
44722;SDS011;30451;48.638;10.624;2022-08-19T00:29:01;2.60;;;2.13;;
44722;SDS011;30451;48.638;10.624;2022-08-19T00:31:28;3.15;;;2.20;;
44722;SDS011;30451;48.638;10.624;2022-08-19T00:33:54;3.13;;;2.20;;
44722;SDS011;30451;48.638;10.624;2022-08-19T00:36:20;2.33;;;2.10;;
44722;SDS011;30451;48.638;10.624;2022-08-19T00:38:45;2.50;;;2.20;;
44722;SDS011;30451;48.638;10.624;2022-08-19T00:41:14;3.13;;;2.15;;
44722;SDS011;30451;48.638;10.624;2022-08-19T00:43:59;2.88;;;2.30;;
44722;SDS011;30451;48.638;10.624;2022-08-19T00:46:30;2.45;;;2.03;;
44722;SDS011;30451;48.638;10.624;2022-08-19T00:48:58;2.40;;;2.13;;
44722;SDS011;30451;48.638;10.624;2022-08-19T00:51:26;2.67;;;2.15;;
44722;SDS011;30451;48.638;10.624;2022-08-19T00:53:55;3.20;;;2.05;;
44722;SDS011;30451;48.638;10.624;2022-08-19T00:56:23;2.67;;;2.10;;
44722;SDS011;30451;48.638;10.624;2022-08-19T00:58:51;2.67;;;2.00;;
44722;SDS011;30451;48.638;10.624;2022-08-19T01:01:17;2.58;;;2.00;;
44722;SDS011;30451;48.638;10.624;2022-08-19T01:03:42;2.90;;;2.20;;
44722;SDS011;30451;48.638;10.624;2022-08-19T01:06:08;2.65;;;2.20;;
44722;SDS011;30451;48.638;10.624;2022-08-19T01:08:34;2.30;;;1.83;;
44722;SDS011;30451;48.638;10.624;2022-08-19T01:10:59;2.28;;;2.05;;
44722;SDS011;30451;48.638;10.624;2022-08-19T01:13:27;2.67;;;1.92;;
44722;SDS011;30451;48.638;10.624;2022-08-19T01:15:56;2.67;;;2.00;;
44722;SDS011;30451;48.638;10.624;2022-08-19T01:18:26;2.33;;;1.92;;
44722;SDS011;30451;48.638;10.624;2022-08-19T01:20:53;2.60;;;1.95;;
44722;SDS011;30451;48.638;10.624;2022-08-19T01:23:21;3.28;;;2.28;;
44722;SDS011;30451;48.638;10.624;2022-08-19T01:26:06;2.20;;;1.90;;
44722;SDS011;30451;48.638;10.624;2022-08-19T01:28:33;2.42;;;1.98;;
44722;SDS011;30451;48.638;10.624;2022-08-19T01:31:00;2.88;;;1.95;;
44722;SDS011;30451;48.638;10.624;2022-08-19T01:33:26;2.75;;;2.20;;
44722;SDS011;30451;48.638;10.624;2022-08-19T01:35:52;2.50;;;2.00;;
44722;SDS011;30451;48.638;10.624;2022-08-19T01:38:25;2.50;;;2.08;;
44722;SDS011;30451;48.638;10.624;2022-08-19T01:40:52;2.20;;;1.90;;
44722;SDS011;30451;48.638;10.624;2022-08-19T01:43:18;2.20;;;1.80;;
44722;SDS011;30451;48.638;10.624;2022-08-19T01:45:44;2.30;;;1.90;;
44722;SDS011;30451;48.638;10.624;2022-08-19T01:48:11;2.70;;;1.98;;
44722;SDS011;30451;48.638;10.624;2022-08-19T01:50:38;2.40;;;1.90;;
44722;SDS011;30451;48.638;10.624;2022-08-19T01:53:05;2.10;;;1.80;;
44722;SDS011;30451;48.638;10.624;2022-08-19T01:55:32;2.90;;;2.03;;
44722;SDS011;30451;48.638;10.624;2022-08-19T01:58:00;2.17;;;1.75;;
44722;SDS011;30451;48.638;10.624;2022-08-19T02:00:28;2.03;;;1.80;;
44722;SDS011;30451;48.638;10.624;2022-08-19T02:02:55;2.10;;;1.73;;
44722;SDS011;30451;48.638;10.624;2022-08-19T02:05:21;2.35;;;2.00;;
44722;SDS011;30451;48.638;10.624;2022-08-19T02:07:47;2.03;;;1.70;;
44722;SDS011;30451;48.638;10.624;2022-08-19T02:10:15;2.08;;;1.77;;
44722;SDS011;30451;48.638;10.624;2022-08-19T02:12:43;2.55;;;1.92;;
44722;SDS011;30451;48.638;10.624;2022-08-19T02:15:09;2.28;;;1.67;;
44722;SDS011;30451;48.638;10.624;2022-08-19T02:17:35;2.55;;;1.90;;
44722;SDS011;30451;48.638;10.624;2022-08-19T02:20:01;2.30;;;1.80;;
44722;SDS011;30451;48.638;10.624;2022-08-19T02:22:28;3.38;;;1.90;;
44722;SDS011;30451;48.638;10.624;2022-08-19T02:24:54;2.20;;;1.70;;
44722;SDS011;30451;48.638;10.624;2022-08-19T02:27:20;2.20;;;1.80;;
44722;SDS011;30451;48.638;10.624;2022-08-19T02:29:47;2.33;;;1.70;;
44722;SDS011;30451;48.638;10.624;2022-08-19T02:32:13;2.60;;;2.10;;
44722;SDS011;30451;48.638;10.624;2022-08-19T02:34:39;2.17;;;1.80;;
44722;SDS011;30451;48.638;10.624;2022-08-19T02:37:05;2.15;;;1.83;;
44722;SDS011;30451;48.638;10.624;2022-08-19T02:39:51;2.10;;;1.70;;
44722;SDS011;30451;48.638;10.624;2022-08-19T02:42:17;2.00;;;1.70;;
44722;SDS011;30451;48.638;10.624;2022-08-19T02:44:42;2.00;;;1.65;;
44722;SDS011;30451;48.638;10.624;2022-08-19T02:47:09;2.05;;;1.60;;
44722;SDS011;30451;48.638;10.624;2022-08-19T02:49:34;2.40;;;1.88;;
44722;SDS011;30451;48.638;10.624;2022-08-19T02:52:00;2.15;;;1.70;;
44722;SDS011;30451;48.638;10.624;2022-08-19T02:54:27;2.15;;;1.80;;
44722;SDS011;30451;48.638;10.624;2022-08-19T02:56:53;2.50;;;1.77;;
44722;SDS011;30451;48.638;10.624;2022-08-19T02:59:19;2.13;;;1.80;;
44722;SDS011;30451;48.638;10.624;2022-08-19T03:01:45;2.17;;;1.70;;
44722;SDS011;30451;48.638;10.624;2022-08-19T03:04:11;2.30;;;1.85;;
44722;SDS011;30451;48.638;10.624;2022-08-19T03:06:41;2.00;;;1.73;;
44722;SDS011;30451;48.638;10.624;2022-08-19T03:09:08;1.80;;;1.50;;
44722;SDS011;30451;48.638;10.624;2022-08-19T03:11:34;2.10;;;1.70;;
44722;SDS011;30451;48.638;10.624;2022-08-19T03:14:00;2.30;;;1.80;;
44722;SDS011;30451;48.638;10.624;2022-08-19T03:16:28;2.20;;;1.80;;
44722;SDS011;30451;48.638;10.624;2022-08-19T03:18:56;2.30;;;1.75;;
44722;SDS011;30451;48.638;10.624;2022-08-19T03:21:26;2.15;;;1.70;;
44722;SDS011;30451;48.638;10.624;2022-08-19T03:23:54;2.67;;;1.90;;
44722;SDS011;30451;48.638;10.624;2022-08-19T03:26:20;2.03;;;1.65;;
44722;SDS011;30451;48.638;10.624;2022-08-19T03:28:46;2.10;;;1.65;;
44722;SDS011;30451;48.638;10.624;2022-08-19T03:31:14;2.10;;;1.77;;
44722;SDS011;30451;48.638;10.624;2022-08-19T03:33:42;2.38;;;1.90;;
44722;SDS011;30451;48.638;10.624;2022-08-19T03:36:12;1.90;;;1.60;;
44722;SDS011;30451;48.638;10.624;2022-08-19T03:38:44;1.98;;;1.63;;
44722;SDS011;30451;48.638;10.624;2022-08-19T03:41:13;2.00;;;1.70;;
44722;SDS011;30451;48.638;10.624;2022-08-19T03:46:08;2.05;;;1.67;;
44722;SDS011;30451;48.638;10.624;2022-08-19T03:48:36;1.83;;;1.60;;
44722;SDS011;30451;48.638;10.624;2022-08-19T03:51:03;1.75;;;1.55;;
44722;SDS011;30451;48.638;10.624;2022-08-19T03:53:29;2.40;;;1.73;;
44722;SDS011;30451;48.638;10.624;2022-08-19T03:55:56;1.98;;;1.65;;
44722;SDS011;30451;48.638;10.624;2022-08-19T03:58:24;2.22;;;1.70;;
44722;SDS011;30451;48.638;10.624;2022-08-19T04:00:50;2.03;;;1.58;;
44722;SDS011;30451;48.638;10.624;2022-08-19T04:03:16;2.38;;;1.75;;
44722;SDS011;30451;48.638;10.624;2022-08-19T04:05:43;2.00;;;1.73;;
44722;SDS011;30451;48.638;10.624;2022-08-19T04:08:09;2.03;;;1.63;;
44722;SDS011;30451;48.638;10.624;2022-08-19T04:10:35;2.20;;;1.80;;
44722;SDS011;30451;48.638;10.624;2022-08-19T04:13:03;2.20;;;1.60;;
44722;SDS011;30451;48.638;10.624;2022-08-19T04:15:30;2.17;;;1.70;;
44722;SDS011;30451;48.638;10.624;2022-08-19T04:18:00;1.80;;;1.58;;
44722;SDS011;30451;48.638;10.624;2022-08-19T04:20:27;2.10;;;1.60;;
44722;SDS011;30451;48.638;10.624;2022-08-19T04:22:53;2.35;;;1.75;;
44722;SDS011;30451;48.638;10.624;2022-08-19T04:25:18;2.55;;;1.88;;
44722;SDS011;30451;48.638;10.624;2022-08-19T04:27:44;2.58;;;1.90;;
44722;SDS011;30451;48.638;10.624;2022-08-19T04:30:11;1.83;;;1.50;;
44722;SDS011;30451;48.638;10.624;2022-08-19T04:32:38;2.08;;;1.80;;
44722;SDS011;30451;48.638;10.624;2022-08-19T04:35:04;1.83;;;1.60;;
44722;SDS011;30451;48.638;10.624;2022-08-19T04:37:30;1.85;;;1.60;;
44722;SDS011;30451;48.638;10.624;2022-08-19T04:39:58;2.58;;;1.83;;
44722;SDS011;30451;48.638;10.624;2022-08-19T04:42:42;2.10;;;1.80;;
44722;SDS011;30451;48.638;10.624;2022-08-19T04:45:11;2.13;;;1.80;;
44722;SDS011;30451;48.638;10.624;2022-08-19T04:47:39;1.90;;;1.70;;
44722;SDS011;30451;48.638;10.624;2022-08-19T04:50:07;1.80;;;1.55;;
44722;SDS011;30451;48.638;10.624;2022-08-19T04:52:34;1.98;;;1.70;;
44722;SDS011;30451;48.638;10.624;2022-08-19T04:54:59;2.20;;;1.70;;
44722;SDS011;30451;48.638;10.624;2022-08-19T04:57:25;1.90;;;1.70;;
44722;SDS011;30451;48.638;10.624;2022-08-19T04:59:54;2.33;;;1.80;;
44722;SDS011;30451;48.638;10.624;2022-08-19T05:02:21;2.53;;;1.83;;
44722;SDS011;30451;48.638;10.624;2022-08-19T05:04:55;2.13;;;1.63;;
44722;SDS011;30451;48.638;10.624;2022-08-19T05:07:22;2.05;;;1.75;;
44722;SDS011;30451;48.638;10.624;2022-08-19T05:09:47;2.10;;;1.80;;
44722;SDS011;30451;48.638;10.624;2022-08-19T05:12:13;2.33;;;1.90;;
44722;SDS011;30451;48.638;10.624;2022-08-19T05:14:39;1.80;;;1.50;;
44722;SDS011;30451;48.638;10.624;2022-08-19T05:17:04;2.53;;;1.80;;
44722;SDS011;30451;48.638;10.624;2022-08-19T05:19:30;1.88;;;1.63;;
44722;SDS011;30451;48.638;10.624;2022-08-19T05:22:14;2.47;;;1.90;;
44722;SDS011;30451;48.638;10.624;2022-08-19T05:25:07;2.08;;;1.80;;
44722;SDS011;30451;48.638;10.624;2022-08-19T05:27:35;2.15;;;1.75;;
44722;SDS011;30451;48.638;10.624;2022-08-19T05:30:00;2.33;;;1.80;;
44722;SDS011;30451;48.638;10.624;2022-08-19T05:32:27;2.20;;;1.80;;
44722;SDS011;30451;48.638;10.624;2022-08-19T05:34:52;2.28;;;1.75;;
44722;SDS011;30451;48.638;10.624;2022-08-19T05:37:18;2.17;;;1.77;;
44722;SDS011;30451;48.638;10.624;2022-08-19T05:39:44;2.20;;;1.70;;
44722;SDS011;30451;48.638;10.624;2022-08-19T05:42:10;2.17;;;1.85;;
44722;SDS011;30451;48.638;10.624;2022-08-19T05:44:38;2.33;;;1.70;;
44722;SDS011;30451;48.638;10.624;2022-08-19T05:47:08;2.40;;;1.80;;
44722;SDS011;30451;48.638;10.624;2022-08-19T05:49:34;1.90;;;1.65;;
44722;SDS011;30451;48.638;10.624;2022-08-19T05:52:01;2.08;;;1.80;;
44722;SDS011;30451;48.638;10.624;2022-08-19T05:54:29;2.13;;;1.93;;
44722;SDS011;30451;48.638;10.624;2022-08-19T05:56:55;1.90;;;1.70;;
44722;SDS011;30451;48.638;10.624;2022-08-19T05:59:20;2.60;;;1.83;;
44722;SDS011;30451;48.638;10.624;2022-08-19T06:01:47;2.13;;;1.70;;
44722;SDS011;30451;48.638;10.624;2022-08-19T06:04:17;2.72;;;1.90;;
44722;SDS011;30451;48.638;10.624;2022-08-19T06:06:44;2.13;;;1.90;;
44722;SDS011;30451;48.638;10.624;2022-08-19T06:09:11;2.08;;;1.83;;
44722;SDS011;30451;48.638;10.624;2022-08-19T06:11:39;2.30;;;1.70;;
44722;SDS011;30451;48.638;10.624;2022-08-19T06:14:08;2.00;;;1.70;;
44722;SDS011;30451;48.638;10.624;2022-08-19T06:19:04;2.20;;;1.80;;
44722;SDS011;30451;48.638;10.624;2022-08-19T06:23:58;1.98;;;1.60;;
44722;SDS011;30451;48.638;10.624;2022-08-19T06:26:25;2.33;;;1.90;;
44722;SDS011;30451;48.638;10.624;2022-08-19T06:28:51;2.10;;;1.85;;
44722;SDS011;30451;48.638;10.624;2022-08-19T06:31:18;2.20;;;1.80;;
44722;SDS011;30451;48.638;10.624;2022-08-19T06:36:19;2.17;;;1.83;;
44722;SDS011;30451;48.638;10.624;2022-08-19T06:38:45;2.42;;;1.90;;
44722;SDS011;30451;48.638;10.624;2022-08-19T06:41:11;2.22;;;1.83;;
44722;SDS011;30451;48.638;10.624;2022-08-19T06:43:37;2.33;;;1.80;;
44722;SDS011;30451;48.638;10.624;2022-08-19T06:46:03;2.05;;;1.83;;
44722;SDS011;30451;48.638;10.624;2022-08-19T06:48:29;2.20;;;1.85;;
44722;SDS011;30451;48.638;10.624;2022-08-19T06:50:55;2.40;;;1.90;;
44722;SDS011;30451;48.638;10.624;2022-08-19T06:53:21;2.15;;;1.80;;
44722;SDS011;30451;48.638;10.624;2022-08-19T06:55:47;2.28;;;1.88;;
44722;SDS011;30451;48.638;10.624;2022-08-19T06:58:12;2.08;;;1.83;;
44722;SDS011;30451;48.638;10.624;2022-08-19T07:00:39;2.05;;;1.85;;
44722;SDS011;30451;48.638;10.624;2022-08-19T07:03:04;2.42;;;2.03;;
44722;SDS011;30451;48.638;10.624;2022-08-19T07:05:30;2.28;;;1.90;;
44722;SDS011;30451;48.638;10.624;2022-08-19T07:07:56;2.55;;;2.13;;
44722;SDS011;30451;48.638;10.624;2022-08-19T07:10:22;2.20;;;1.92;;
44722;SDS011;30451;48.638;10.624;2022-08-19T07:12:47;2.92;;;2.03;;
44722;SDS011;30451;48.638;10.624;2022-08-19T07:15:15;2.40;;;2.08;;
44722;SDS011;30451;48.638;10.624;2022-08-19T07:17:41;2.38;;;2.00;;
44722;SDS011;30451;48.638;10.624;2022-08-19T07:20:08;2.45;;;2.05;;
44722;SDS011;30451;48.638;10.624;2022-08-19T07:22:35;2.35;;;2.15;;
44722;SDS011;30451;48.638;10.624;2022-08-19T07:25:06;2.55;;;2.20;;
44722;SDS011;30451;48.638;10.624;2022-08-19T07:27:33;2.30;;;2.00;;
44722;SDS011;30451;48.638;10.624;2022-08-19T07:29:59;2.30;;;2.10;;
44722;SDS011;30451;48.638;10.624;2022-08-19T07:32:25;2.67;;;2.42;;
44722;SDS011;30451;48.638;10.624;2022-08-19T07:34:51;2.45;;;2.20;;
44722;SDS011;30451;48.638;10.624;2022-08-19T07:37:17;2.60;;;2.22;;
44722;SDS011;30451;48.638;10.624;2022-08-19T07:39:43;2.65;;;2.25;;
44722;SDS011;30451;48.638;10.624;2022-08-19T07:42:09;2.67;;;2.20;;
44722;SDS011;30451;48.638;10.624;2022-08-19T07:44:36;2.72;;;2.22;;
44722;SDS011;30451;48.638;10.624;2022-08-19T07:47:02;2.70;;;2.30;;
44722;SDS011;30451;48.638;10.624;2022-08-19T07:49:29;2.90;;;2.50;;
44722;SDS011;30451;48.638;10.624;2022-08-19T07:51:56;2.83;;;2.40;;
44722;SDS011;30451;48.638;10.624;2022-08-19T07:56:50;2.95;;;2.60;;
44722;SDS011;30451;48.638;10.624;2022-08-19T07:59:16;2.90;;;2.58;;
44722;SDS011;30451;48.638;10.624;2022-08-19T08:01:43;3.00;;;2.65;;
44722;SDS011;30451;48.638;10.624;2022-08-19T08:04:09;2.90;;;2.50;;
44722;SDS011;30451;48.638;10.624;2022-08-19T08:06:54;3.47;;;2.85;;
44722;SDS011;30451;48.638;10.624;2022-08-19T08:09:39;2.80;;;2.47;;
44722;SDS011;30451;48.638;10.624;2022-08-19T08:12:11;2.90;;;2.60;;
44722;SDS011;30451;48.638;10.624;2022-08-19T08:14:43;3.45;;;2.83;;
44722;SDS011;30451;48.638;10.624;2022-08-19T08:17:12;3.08;;;2.78;;
44722;SDS011;30451;48.638;10.624;2022-08-19T08:19:40;2.90;;;2.38;;
44722;SDS011;30451;48.638;10.624;2022-08-19T08:22:06;3.25;;;2.60;;
44722;SDS011;30451;48.638;10.624;2022-08-19T08:24:32;3.05;;;2.60;;
44722;SDS011;30451;48.638;10.624;2022-08-19T08:26:59;3.00;;;2.70;;
44722;SDS011;30451;48.638;10.624;2022-08-19T08:29:29;3.30;;;2.80;;
44722;SDS011;30451;48.638;10.624;2022-08-19T08:31:56;3.08;;;2.78;;
44722;SDS011;30451;48.638;10.624;2022-08-19T08:34:23;3.00;;;2.65;;
44722;SDS011;30451;48.638;10.624;2022-08-19T08:36:48;3.00;;;2.65;;
44722;SDS011;30451;48.638;10.624;2022-08-19T08:39:16;2.97;;;2.60;;
44722;SDS011;30451;48.638;10.624;2022-08-19T08:44:51;3.92;;;3.10;;
44722;SDS011;30451;48.638;10.624;2022-08-19T08:47:24;3.17;;;2.78;;
44722;SDS011;30451;48.638;10.624;2022-08-19T08:49:56;3.10;;;2.80;;
44722;SDS011;30451;48.638;10.624;2022-08-19T08:52:28;2.90;;;2.60;;
44722;SDS011;30451;48.638;10.624;2022-08-19T08:55:03;3.13;;;2.55;;
44722;SDS011;30451;48.638;10.624;2022-08-19T08:57:40;3.00;;;2.63;;
44722;SDS011;30451;48.638;10.624;2022-08-19T09:00:10;3.60;;;3.15;;
44722;SDS011;30451;48.638;10.624;2022-08-19T09:02:43;3.10;;;2.80;;
44722;SDS011;30451;48.638;10.624;2022-08-19T09:05:10;3.40;;;2.92;;
44722;SDS011;30451;48.638;10.624;2022-08-19T09:07:46;3.30;;;3.00;;
44722;SDS011;30451;48.638;10.624;2022-08-19T09:15:31;3.30;;;2.90;;
44722;SDS011;30451;48.638;10.624;2022-08-19T09:18:09;3.50;;;3.03;;
44722;SDS011;30451;48.638;10.624;2022-08-19T09:20:35;3.47;;;2.95;;
44722;SDS011;30451;48.638;10.624;2022-08-19T09:23:01;3.40;;;2.92;;
44722;SDS011;30451;48.638;10.624;2022-08-19T09:25:27;3.22;;;2.83;;
44722;SDS011;30451;48.638;10.624;2022-08-19T09:27:53;3.10;;;2.80;;
44722;SDS011;30451;48.638;10.624;2022-08-19T09:30:20;3.75;;;3.28;;
44722;SDS011;30451;48.638;10.624;2022-08-19T09:32:51;3.35;;;3.00;;
44722;SDS011;30451;48.638;10.624;2022-08-19T09:35:18;3.35;;;3.05;;
44722;SDS011;30451;48.638;10.624;2022-08-19T09:37:48;3.30;;;3.00;;
44722;SDS011;30451;48.638;10.624;2022-08-19T09:40:15;3.63;;;3.20;;
44722;SDS011;30451;48.638;10.624;2022-08-19T09:42:42;3.75;;;3.35;;
44722;SDS011;30451;48.638;10.624;2022-08-19T09:45:13;3.47;;;3.03;;
44722;SDS011;30451;48.638;10.624;2022-08-19T09:47:39;3.53;;;3.08;;
44722;SDS011;30451;48.638;10.624;2022-08-19T09:50:06;3.38;;;3.08;;
44722;SDS011;30451;48.638;10.624;2022-08-19T09:52:33;3.50;;;3.20;;
44722;SDS011;30451;48.638;10.624;2022-08-19T09:55:02;3.55;;;3.25;;
44722;SDS011;30451;48.638;10.624;2022-08-19T09:57:28;3.42;;;3.10;;
44722;SDS011;30451;48.638;10.624;2022-08-19T09:59:54;3.38;;;3.00;;
44722;SDS011;30451;48.638;10.624;2022-08-19T10:02:20;3.50;;;3.20;;
44722;SDS011;30451;48.638;10.624;2022-08-19T10:04:45;3.50;;;3.20;;
44722;SDS011;30451;48.638;10.624;2022-08-19T10:07:29;3.67;;;3.10;;
44722;SDS011;30451;48.638;10.624;2022-08-19T10:09:55;3.78;;;3.22;;
44722;SDS011;30451;48.638;10.624;2022-08-19T10:12:21;3.50;;;3.20;;
44722;SDS011;30451;48.638;10.624;2022-08-19T10:14:47;3.55;;;3.10;;
44722;SDS011;30451;48.638;10.624;2022-08-19T10:17:13;3.28;;;2.97;;
44722;SDS011;30451;48.638;10.624;2022-08-19T10:19:39;4.03;;;3.50;;
44722;SDS011;30451;48.638;10.624;2022-08-19T10:22:05;3.67;;;3.38;;
44722;SDS011;30451;48.638;10.624;2022-08-19T10:24:32;3.65;;;3.35;;
44722;SDS011;30451;48.638;10.624;2022-08-19T10:26:59;3.58;;;3.15;;
44722;SDS011;30451;48.638;10.624;2022-08-19T10:29:26;3.65;;;3.17;;
44722;SDS011;30451;48.638;10.624;2022-08-19T10:31:53;3.78;;;3.38;;
44722;SDS011;30451;48.638;10.624;2022-08-19T10:34:19;4.30;;;3.60;;
44722;SDS011;30451;48.638;10.624;2022-08-19T10:36:44;4.05;;;3.65;;
44722;SDS011;30451;48.638;10.624;2022-08-19T10:39:10;3.83;;;3.42;;
44722;SDS011;30451;48.638;10.624;2022-08-19T10:41:38;3.90;;;3.50;;
44722;SDS011;30451;48.638;10.624;2022-08-19T10:44:08;3.70;;;3.22;;
44722;SDS011;30451;48.638;10.624;2022-08-19T10:46:36;3.40;;;3.08;;
44722;SDS011;30451;48.638;10.624;2022-08-19T10:49:06;4.05;;;3.53;;
44722;SDS011;30451;48.638;10.624;2022-08-19T10:51:33;3.75;;;3.35;;
44722;SDS011;30451;48.638;10.624;2022-08-19T10:54:17;3.50;;;3.20;;
44722;SDS011;30451;48.638;10.624;2022-08-19T10:56:43;4.75;;;3.90;;
44722;SDS011;30451;48.638;10.624;2022-08-19T10:59:19;3.65;;;3.33;;
44722;SDS011;30451;48.638;10.624;2022-08-19T11:01:51;4.13;;;3.47;;
44722;SDS011;30451;48.638;10.624;2022-08-19T11:04:17;4.05;;;3.60;;
44722;SDS011;30451;48.638;10.624;2022-08-19T11:06:44;3.53;;;3.22;;
44722;SDS011;30451;48.638;10.624;2022-08-19T11:09:13;4.20;;;3.40;;
44722;SDS011;30451;48.638;10.624;2022-08-19T11:11:43;3.63;;;3.22;;
44722;SDS011;30451;48.638;10.624;2022-08-19T11:14:10;4.28;;;3.67;;
44722;SDS011;30451;48.638;10.624;2022-08-19T11:16:38;4.20;;;3.63;;
44722;SDS011;30451;48.638;10.624;2022-08-19T11:19:05;4.90;;;4.28;;
44722;SDS011;30451;48.638;10.624;2022-08-19T11:21:36;5.80;;;4.55;;
44722;SDS011;30451;48.638;10.624;2022-08-19T11:26:35;5.13;;;4.47;;
44722;SDS011;30451;48.638;10.624;2022-08-19T11:29:02;7.43;;;4.80;;
44722;SDS011;30451;48.638;10.624;2022-08-19T11:31:31;5.65;;;5.00;;
44722;SDS011;30451;48.638;10.624;2022-08-19T11:33:59;6.88;;;4.82;;
44722;SDS011;30451;48.638;10.624;2022-08-19T11:38:53;6.68;;;4.57;;
44722;SDS011;30451;48.638;10.624;2022-08-19T11:41:20;6.05;;;4.97;;
44722;SDS011;30451;48.638;10.624;2022-08-19T11:43:48;5.68;;;5.07;;
44722;SDS011;30451;48.638;10.624;2022-08-19T11:46:15;6.10;;;5.10;;
44722;SDS011;30451;48.638;10.624;2022-08-19T11:48:41;6.20;;;4.57;;
44722;SDS011;30451;48.638;10.624;2022-08-19T11:51:12;6.30;;;4.70;;
44722;SDS011;30451;48.638;10.624;2022-08-19T11:53:39;5.80;;;4.35;;
44722;SDS011;30451;48.638;10.624;2022-08-19T11:56:05;6.57;;;5.00;;
44722;SDS011;30451;48.638;10.624;2022-08-19T11:58:33;6.20;;;4.90;;
44722;SDS011;30451;48.638;10.624;2022-08-19T12:00:59;6.22;;;4.72;;
44722;SDS011;30451;48.638;10.624;2022-08-19T12:03:25;6.07;;;4.70;;
44722;SDS011;30451;48.638;10.624;2022-08-19T12:05:51;6.57;;;4.95;;
44722;SDS011;30451;48.638;10.624;2022-08-19T12:08:17;5.63;;;4.45;;
44722;SDS011;30451;48.638;10.624;2022-08-19T12:10:43;5.72;;;4.70;;
44722;SDS011;30451;48.638;10.624;2022-08-19T12:13:11;5.28;;;4.32;;
44722;SDS011;30451;48.638;10.624;2022-08-19T12:15:43;5.05;;;4.22;;
44722;SDS011;30451;48.638;10.624;2022-08-19T12:18:10;5.72;;;4.70;;
44722;SDS011;30451;48.638;10.624;2022-08-19T12:20:39;5.63;;;5.00;;
44722;SDS011;30451;48.638;10.624;2022-08-19T12:23:06;5.82;;;4.50;;
44722;SDS011;30451;48.638;10.624;2022-08-19T12:25:34;5.85;;;4.38;;
44722;SDS011;30451;48.638;10.624;2022-08-19T12:28:00;4.85;;;4.32;;
44722;SDS011;30451;48.638;10.624;2022-08-19T12:30:26;5.00;;;4.07;;
44722;SDS011;30451;48.638;10.624;2022-08-19T12:32:52;5.60;;;4.50;;
44722;SDS011;30451;48.638;10.624;2022-08-19T12:35:18;5.63;;;4.43;;
44722;SDS011;30451;48.638;10.624;2022-08-19T12:37:47;5.65;;;4.57;;
44722;SDS011;30451;48.638;10.624;2022-08-19T12:40:14;5.00;;;4.40;;
44722;SDS011;30451;48.638;10.624;2022-08-19T12:42:41;5.30;;;4.40;;
44722;SDS011;30451;48.638;10.624;2022-08-19T12:45:10;5.45;;;4.40;;
44722;SDS011;30451;48.638;10.624;2022-08-19T12:47:37;5.57;;;4.50;;
44722;SDS011;30451;48.638;10.624;2022-08-19T12:50:03;5.03;;;4.32;;
44722;SDS011;30451;48.638;10.624;2022-08-19T12:52:31;5.47;;;4.50;;
44722;SDS011;30451;48.638;10.624;2022-08-19T12:54:57;5.25;;;4.53;;
44722;SDS011;30451;48.638;10.624;2022-08-19T12:57:23;5.35;;;4.35;;
44722;SDS011;30451;48.638;10.624;2022-08-19T12:59:52;5.50;;;4.38;;
44722;SDS011;30451;48.638;10.624;2022-08-19T13:04:47;4.60;;;4.13;;
44722;SDS011;30451;48.638;10.624;2022-08-19T13:07:13;5.28;;;4.65;;
44722;SDS011;30451;48.638;10.624;2022-08-19T13:09:39;4.68;;;4.20;;
44722;SDS011;30451;48.638;10.624;2022-08-19T13:12:07;4.85;;;3.95;;
44722;SDS011;30451;48.638;10.624;2022-08-19T13:14:37;5.63;;;4.40;;
44722;SDS011;30451;48.638;10.624;2022-08-19T13:17:05;5.45;;;4.63;;
44722;SDS011;30451;48.638;10.624;2022-08-19T13:19:31;5.18;;;4.22;;
44722;SDS011;30451;48.638;10.624;2022-08-19T13:21:57;5.60;;;4.30;;
44722;SDS011;30451;48.638;10.624;2022-08-19T13:24:23;4.80;;;4.30;;
44722;SDS011;30451;48.638;10.624;2022-08-19T13:26:49;5.10;;;4.00;;
44722;SDS011;30451;48.638;10.624;2022-08-19T13:29:15;4.80;;;4.15;;
44722;SDS011;30451;48.638;10.624;2022-08-19T13:32:00;4.88;;;4.35;;
44722;SDS011;30451;48.638;10.624;2022-08-19T13:34:44;4.75;;;4.25;;
44722;SDS011;30451;48.638;10.624;2022-08-19T13:37:11;4.78;;;4.00;;
44722;SDS011;30451;48.638;10.624;2022-08-19T13:39:37;5.30;;;4.10;;
44722;SDS011;30451;48.638;10.624;2022-08-19T13:42:03;5.65;;;4.25;;
44722;SDS011;30451;48.638;10.624;2022-08-19T13:44:29;5.65;;;4.40;;
44722;SDS011;30451;48.638;10.624;2022-08-19T13:47:02;4.90;;;4.40;;
44722;SDS011;30451;48.638;10.624;2022-08-19T13:49:31;4.60;;;4.10;;
44722;SDS011;30451;48.638;10.624;2022-08-19T13:51:57;5.00;;;4.18;;
44722;SDS011;30451;48.638;10.624;2022-08-19T13:54:23;4.88;;;4.38;;
44722;SDS011;30451;48.638;10.624;2022-08-19T13:56:49;4.72;;;4.05;;
44722;SDS011;30451;48.638;10.624;2022-08-19T13:59:16;4.93;;;4.10;;
44722;SDS011;30451;48.638;10.624;2022-08-19T14:01:42;4.65;;;4.03;;
44722;SDS011;30451;48.638;10.624;2022-08-19T14:04:08;4.50;;;4.10;;
44722;SDS011;30451;48.638;10.624;2022-08-19T14:06:34;4.80;;;4.30;;
44722;SDS011;30451;48.638;10.624;2022-08-19T14:09:00;4.70;;;4.00;;
44722;SDS011;30451;48.638;10.624;2022-08-19T14:11:27;5.10;;;3.78;;
44722;SDS011;30451;48.638;10.624;2022-08-19T14:13:53;4.60;;;3.80;;
44722;SDS011;30451;48.638;10.624;2022-08-19T14:16:18;4.85;;;4.13;;
44722;SDS011;30451;48.638;10.624;2022-08-19T14:18:44;4.10;;;3.65;;
44722;SDS011;30451;48.638;10.624;2022-08-19T14:21:14;5.65;;;4.05;;
44722;SDS011;30451;48.638;10.624;2022-08-19T14:23:45;4.88;;;4.20;;
44722;SDS011;30451;48.638;10.624;2022-08-19T14:26:13;4.75;;;4.03;;
44722;SDS011;30451;48.638;10.624;2022-08-19T14:28:40;4.72;;;3.97;;
44722;SDS011;30451;48.638;10.624;2022-08-19T14:31:07;4.57;;;4.10;;
44722;SDS011;30451;48.638;10.624;2022-08-19T14:33:37;5.20;;;4.03;;
44722;SDS011;30451;48.638;10.624;2022-08-19T14:36:04;4.57;;;4.03;;
44722;SDS011;30451;48.638;10.624;2022-08-19T14:38:30;4.00;;;3.60;;
44722;SDS011;30451;48.638;10.624;2022-08-19T14:41:05;4.22;;;3.58;;
44722;SDS011;30451;48.638;10.624;2022-08-19T14:43:42;4.97;;;4.30;;
44722;SDS011;30451;48.638;10.624;2022-08-19T14:46:13;4.50;;;3.80;;
44722;SDS011;30451;48.638;10.624;2022-08-19T14:48:45;5.40;;;3.63;;
44722;SDS011;30451;48.638;10.624;2022-08-19T14:51:11;4.38;;;3.85;;
44722;SDS011;30451;48.638;10.624;2022-08-19T14:53:37;4.40;;;3.90;;
44722;SDS011;30451;48.638;10.624;2022-08-19T14:56:08;4.28;;;3.67;;
44722;SDS011;30451;48.638;10.624;2022-08-19T14:58:34;4.30;;;3.88;;
44722;SDS011;30451;48.638;10.624;2022-08-19T15:01:00;4.15;;;3.72;;
44722;SDS011;30451;48.638;10.624;2022-08-19T15:03:26;3.53;;;3.22;;
44722;SDS011;30451;48.638;10.624;2022-08-19T15:05:53;4.30;;;3.67;;